LiveATC.Net - Listen to live air traffic control over the Internet!


ICAO: SAZS  IATA: BRC   Airport: San Carlos de Bariloche Airport
City: Rio Negro
Country: Argentina   Continent: South America
SAZS METAR Weather: SAZS 181300Z 00000KT CAVOK 10/02 Q1023
SAZS Flight Activity (FlightAware)

SAZS Gnd/Twr/App
Feed Status: UP   Listeners: 1
Listen in your browser - HTML5 player (in browser, HTML5)
Click here to listen with your own player (launches your MP3 player)
Archive Access: SAZS Gnd/Twr/App
FacilityFrequency
Bariloche Twr/App119.100
Comodoro Rivadavia Control125.500
Ezeiza South125.200

Feed courtesy of: Juan Jose Porta - Bariloche

NOTICE

Unauthorized use prohibited. See LiveATC.net Terms of Service


Airport/ARTCC Code
Frequency Search
(e.g., 124.400, 128.75)
Site-wide search
 


Browse Feeds
Top 50 Feeds
HF Oceanic Feeds
Coverage Map
Bad Weather Areas

LiveATC FAQ
Offer LiveATC feed
Contact LiveATC.net
Press Inquiries

LiveATC on iPhone
LiveATC on Android

Windows Phone
Windows 8/10

LiveATC Mobile
(Mobile browser)

ATC Audio Archives
Interesting Recordings

LiveATC Forums


Home Page
About LiveATC.net
Make a Donation
Terms of Use
Privacy Policy

Canadian Air Freqs

AIRMETs/SIGMETs

FAA Airport Status
NAS Status
Arrival Demand


Server Software By:
Icecast.org
Liquidsoap